createdAt,value
2022-12-22T00:00:23.889Z,0.34
2022-12-22T00:03:09.687Z,0.15
2022-12-22T00:05:54.920Z,0.14
2022-12-22T00:08:40.545Z,0.07
2022-12-22T00:11:30.152Z,0.15
2022-12-22T00:14:15.466Z,0.39
2022-12-22T00:17:00.861Z,0.31
2022-12-22T00:19:47.840Z,0.53
2022-12-22T00:22:39.921Z,0.45
2022-12-22T00:25:26.073Z,0.03
2022-12-22T00:28:11.275Z,-0.23
2022-12-22T00:30:56.774Z,0.00
2022-12-22T00:33:41.900Z,-0.15
2022-12-22T00:36:30.969Z,-0.10
2022-12-22T00:39:16.486Z,-0.30
2022-12-22T00:42:02.451Z,-0.43
2022-12-22T00:44:47.349Z,-0.29
2022-12-22T00:47:43.895Z,-0.31
2022-12-22T00:50:29.900Z,-0.52
2022-12-22T00:53:16.818Z,-0.56
2022-12-22T00:56:02.240Z,-0.64
2022-12-22T00:58:47.743Z,-0.74
2022-12-22T01:01:32.820Z,-0.74
2022-12-22T01:04:18.044Z,-0.73
2022-12-22T01:07:03.550Z,-0.69
2022-12-22T01:09:49.057Z,-0.75
2022-12-22T01:12:42.711Z,-0.76
2022-12-22T01:15:33.904Z,-0.71
2022-12-22T01:18:18.724Z,-0.70
2022-12-22T01:21:04.177Z,-0.60
2022-12-22T01:23:49.662Z,-0.78
2022-12-22T01:26:34.841Z,-0.75
2022-12-22T01:29:20.158Z,-0.71
2022-12-22T01:32:05.613Z,-0.57
2022-12-22T01:34:50.856Z,-0.66
2022-12-22T01:37:36.412Z,-0.47
2022-12-22T01:40:22.268Z,-0.37
2022-12-22T01:43:07.352Z,-0.49
2022-12-22T01:45:55.439Z,-0.53
2022-12-22T01:48:46.422Z,-0.70
2022-12-22T01:51:38.385Z,-0.74
2022-12-22T01:54:24.439Z,-0.75
2022-12-22T01:57:10.483Z,-0.55
2022-12-22T01:59:55.989Z,-0.55
2022-12-22T02:02:44.741Z,-0.44
2022-12-22T02:05:33.254Z,-0.58
2022-12-22T02:08:45.631Z,-0.64
2022-12-22T02:11:58.375Z,-0.57
2022-12-22T02:14:53.419Z,-0.20
2022-12-22T02:17:47.517Z,-0.37
2022-12-22T02:20:38.567Z,-0.17
2022-12-22T02:23:51.827Z,-0.19
2022-12-22T02:26:51.790Z,-0.36
2022-12-22T02:29:46.458Z,-0.23
2022-12-22T02:32:31.891Z,-0.16
2022-12-22T02:35:17.282Z,-0.19
2022-12-22T02:38:19.636Z,-0.30
2022-12-22T02:41:07.472Z,-0.39
2022-12-22T02:44:04.112Z,-0.28
2022-12-22T02:46:59.857Z,-0.26
2022-12-22T02:50:04.217Z,-0.50
2022-12-22T02:52:55.045Z,-0.57
2022-12-22T02:55:40.406Z,-0.52
2022-12-22T02:58:26.150Z,-0.70
2022-12-22T03:01:11.374Z,-0.90
2022-12-22T03:03:56.842Z,-0.89
2022-12-22T03:06:41.844Z,-1.00
2022-12-22T03:09:26.827Z,-0.83
2022-12-22T03:12:11.936Z,-0.89
2022-12-22T03:14:57.453Z,-1.00
2022-12-22T03:17:42.905Z,-0.92
2022-12-22T03:20:28.898Z,-0.99
2022-12-22T03:23:14.229Z,-1.06
2022-12-22T03:25:53.914Z,-1.10
2022-12-22T03:28:23.057Z,-1.27
2022-12-22T03:30:58.993Z,-1.06
2022-12-22T03:33:26.355Z,-1.10
2022-12-22T03:35:53.077Z,-1.06
2022-12-22T03:38:20.285Z,-1.09
2022-12-22T03:40:47.387Z,-1.12
2022-12-22T03:43:34.566Z,-1.36
2022-12-22T03:46:21.108Z,-1.18
2022-12-22T03:49:07.880Z,-0.98
2022-12-22T03:51:35.604Z,-1.10
2022-12-22T03:54:02.353Z,-1.40
2022-12-22T03:56:29.223Z,-1.47
2022-12-22T03:58:55.904Z,-1.08
2022-12-22T04:01:22.630Z,-1.33
2022-12-22T04:03:50.151Z,-1.14
2022-12-22T04:06:17.830Z,-1.22
2022-12-22T04:08:44.475Z,-1.12
2022-12-22T04:11:35.386Z,-1.32
2022-12-22T04:14:02.584Z,-1.54
2022-12-22T04:16:29.718Z,-1.54
2022-12-22T04:18:56.894Z,-1.29
2022-12-22T04:21:24.319Z,-1.25
2022-12-22T04:23:51.437Z,-1.10
2022-12-22T04:26:20.086Z,-1.33
2022-12-22T04:28:46.877Z,-1.50
2022-12-22T04:31:13.954Z,-1.63
2022-12-22T04:33:40.656Z,-1.74
2022-12-22T04:36:08.106Z,-1.63
2022-12-22T04:38:35.621Z,-1.40
2022-12-22T04:41:02.846Z,-1.35
2022-12-22T04:43:29.553Z,-1.27
2022-12-22T04:45:57.009Z,-1.18
2022-12-22T04:48:25.928Z,-1.19
2022-12-22T04:50:54.731Z,-1.39
2022-12-22T04:53:22.683Z,-1.52
2022-12-22T04:55:51.917Z,-1.46
2022-12-22T04:58:18.579Z,-1.52
2022-12-22T05:00:45.208Z,-1.44
2022-12-22T05:03:12.183Z,-1.46
2022-12-22T05:05:39.007Z,-1.35
2022-12-22T05:08:06.523Z,-1.48
2022-12-22T05:10:33.481Z,-1.64
2022-12-22T05:13:00.212Z,-1.70
2022-12-22T05:15:32.141Z,-1.66
2022-12-22T05:18:00.148Z,-1.75
2022-12-22T05:20:27.964Z,-1.71
2022-12-22T05:22:55.058Z,-1.66
2022-12-22T05:25:22.201Z,-1.47
2022-12-22T05:27:50.595Z,-1.60
2022-12-22T05:30:19.310Z,-1.65
2022-12-22T05:32:46.482Z,-1.49
2022-12-22T05:35:13.405Z,-1.36
2022-12-22T05:37:40.206Z,-1.36
2022-12-22T05:40:08.206Z,-1.35
2022-12-22T05:42:37.455Z,-1.29
2022-12-22T05:45:12.585Z,-1.20
2022-12-22T05:47:40.007Z,-1.22
2022-12-22T05:50:09.606Z,-1.15
2022-12-22T05:52:36.582Z,-1.28
2022-12-22T05:55:04.333Z,-1.38
2022-12-22T05:57:31.295Z,-1.21
2022-12-22T05:59:57.972Z,-1.03
2022-12-22T06:02:25.020Z,-1.05
2022-12-22T06:04:52.074Z,-0.98
2022-12-22T06:07:18.843Z,-1.08
2022-12-22T06:09:45.649Z,-1.19
2022-12-22T06:12:12.345Z,-0.89
2022-12-22T06:14:39.104Z,-1.08
2022-12-22T06:17:05.815Z,-1.13
2022-12-22T06:19:32.458Z,-0.85
2022-12-22T06:21:59.180Z,-0.79
2022-12-22T06:24:26.083Z,-0.81
2022-12-22T06:26:52.805Z,-0.82
2022-12-22T06:29:19.548Z,-1.12
2022-12-22T06:31:46.358Z,-1.15
2022-12-22T06:34:13.579Z,-0.85
2022-12-22T06:36:40.355Z,-0.85
2022-12-22T06:39:07.071Z,-0.72
2022-12-22T06:41:52.549Z,-0.76
2022-12-22T06:44:19.234Z,-0.62
2022-12-22T06:46:46.180Z,-0.70
2022-12-22T06:49:12.935Z,-0.66
2022-12-22T06:51:39.605Z,-0.70
2022-12-22T06:54:06.359Z,-0.20
2022-12-22T06:56:33.094Z,0.28
2022-12-22T06:58:59.773Z,0.87
2022-12-22T07:01:26.604Z,1.48
2022-12-22T07:03:54.700Z,1.89
2022-12-22T07:06:21.593Z,2.27
2022-12-22T07:08:49.242Z,2.47
2022-12-22T07:11:16.630Z,1.88
2022-12-22T07:13:44.128Z,2.01
2022-12-22T07:16:11.853Z,2.96
2022-12-22T07:18:41.172Z,3.25
2022-12-22T07:21:10.910Z,3.01
2022-12-22T07:23:38.318Z,3.72
2022-12-22T07:26:06.329Z,3.56
2022-12-22T07:28:34.464Z,3.71
2022-12-22T07:31:01.256Z,3.20
2022-12-22T07:33:28.126Z,3.20
2022-12-22T07:36:06.945Z,3.03
2022-12-22T07:38:35.938Z,3.27
2022-12-22T07:41:05.476Z,2.86
2022-12-22T07:43:32.583Z,2.43
2022-12-22T07:45:59.258Z,2.81
2022-12-22T07:48:44.502Z,3.10
2022-12-22T07:51:11.126Z,3.85
2022-12-22T07:53:40.129Z,3.90
2022-12-22T07:56:07.232Z,4.23
2022-12-22T07:58:33.969Z,5.17
2022-12-22T08:01:01.360Z,5.73
2022-12-22T08:03:28.322Z,6.07
2022-12-22T08:05:55.138Z,4.36
2022-12-22T08:08:21.822Z,3.62
2022-12-22T08:10:48.530Z,4.31
2022-12-22T08:13:15.371Z,4.06
2022-12-22T08:15:42.148Z,4.22
2022-12-22T08:18:08.929Z,4.61
2022-12-22T08:20:35.689Z,4.70
2022-12-22T08:23:02.339Z,4.74
2022-12-22T08:25:30.776Z,4.58
2022-12-22T08:27:58.363Z,5.22
2022-12-22T08:30:25.160Z,5.08
2022-12-22T08:32:52.083Z,5.56
2022-12-22T08:35:19.045Z,5.22
2022-12-22T08:37:47.356Z,5.06
2022-12-22T08:40:22.681Z,5.11
2022-12-22T08:42:52.354Z,5.58
2022-12-22T08:45:19.086Z,6.66
2022-12-22T08:47:45.746Z,6.49
2022-12-22T08:50:12.451Z,7.22
2022-12-22T08:52:39.179Z,6.22
2022-12-22T08:55:06.971Z,5.95
2022-12-22T08:57:33.640Z,5.78
2022-12-22T09:00:00.383Z,7.22
2022-12-22T09:02:27.237Z,6.84
2022-12-22T09:04:53.924Z,6.86
2022-12-22T09:07:20.622Z,6.71
2022-12-22T09:09:47.355Z,5.29
2022-12-22T09:12:14.310Z,4.99
2022-12-22T09:14:41.009Z,5.35
2022-12-22T09:17:07.706Z,6.42
2022-12-22T09:19:34.748Z,6.84
2022-12-22T09:22:01.363Z,6.39
2022-12-22T09:24:28.030Z,6.42
2022-12-22T09:26:54.725Z,6.62
2022-12-22T09:29:21.408Z,6.26
2022-12-22T09:31:48.123Z,6.59
2022-12-22T09:34:17.949Z,7.38
2022-12-22T09:36:46.019Z,7.95
2022-12-22T09:39:17.015Z,7.53
2022-12-22T09:41:46.069Z,7.93
2022-12-22T09:44:25.899Z,7.27
2022-12-22T09:46:54.801Z,8.27
2022-12-22T09:49:23.027Z,8.45
2022-12-22T09:51:56.613Z,8.18
2022-12-22T09:54:24.905Z,9.24
2022-12-22T09:56:51.949Z,9.60
2022-12-22T09:59:20.897Z,9.87
2022-12-22T10:01:59.470Z,9.44
2022-12-22T10:05:03.849Z,9.85
2022-12-22T10:07:40.742Z,9.54
2022-12-22T10:10:28.493Z,8.30
2022-12-22T10:12:57.773Z,7.39
2022-12-22T10:15:25.629Z,6.23
2022-12-22T10:18:07.948Z,7.27
2022-12-22T10:20:34.953Z,7.34
2022-12-22T10:23:23.228Z,7.69
2022-12-22T10:28:59.632Z,7.49
2022-12-22T10:31:31.730Z,7.56
2022-12-22T10:34:13.177Z,8.16
2022-12-22T10:36:41.800Z,8.09
2022-12-22T10:39:11.155Z,7.99
2022-12-22T10:41:47.764Z,8.27
2022-12-22T10:44:17.489Z,8.07
2022-12-22T10:46:50.456Z,7.43
2022-12-22T10:52:30.028Z,8.32
2022-12-22T10:55:23.431Z,9.29
2022-12-22T10:57:50.820Z,9.59
2022-12-22T11:00:26.742Z,8.81
2022-12-22T11:03:02.212Z,8.53
2022-12-22T11:05:30.041Z,8.75
2022-12-22T11:08:00.962Z,9.24
2022-12-22T11:10:39.910Z,9.85
2022-12-22T11:13:35.767Z,9.72
2022-12-22T11:16:27.689Z,9.17
2022-12-22T11:19:14.456Z,9.05
2022-12-22T11:22:00.989Z,8.83
2022-12-22T11:24:51.761Z,8.95
2022-12-22T11:28:05.146Z,9.47
2022-12-22T11:30:44.943Z,10.16
2022-12-22T11:33:52.150Z,10.51
2022-12-22T11:36:25.011Z,11.44
2022-12-22T11:39:04.389Z,11.31
2022-12-22T11:41:49.566Z,10.82
2022-12-22T11:44:29.170Z,10.31
2022-12-22T11:47:17.406Z,10.36
2022-12-22T11:51:02.031Z,10.56
2022-12-22T11:53:07.611Z,10.58
2022-12-22T11:55:43.379Z,11.06
2022-12-22T11:58:22.084Z,11.37
2022-12-22T12:01:19.003Z,11.96
2022-12-22T12:04:19.955Z,11.08
2022-12-22T12:07:19.299Z,11.14
2022-12-22T12:10:15.123Z,11.52
2022-12-22T12:13:09.239Z,11.58
2022-12-22T12:15:50.911Z,11.04
2022-12-22T12:18:28.708Z,10.56
2022-12-22T12:21:23.000Z,11.22
2022-12-22T12:23:55.371Z,10.64
2022-12-22T12:26:32.672Z,11.80
2022-12-22T12:29:14.357Z,11.36
2022-12-22T12:32:05.746Z,10.22
2022-12-22T12:34:37.633Z,10.17
2022-12-22T12:37:26.363Z,10.38
2022-12-22T12:40:32.252Z,10.89
2022-12-22T12:43:00.456Z,11.03
2022-12-22T12:45:47.737Z,11.04
2022-12-22T12:48:20.358Z,10.87
2022-12-22T12:50:51.281Z,10.55
2022-12-22T12:53:19.694Z,10.79
2022-12-22T12:55:53.419Z,10.48
2022-12-22T12:58:35.510Z,9.83
2022-12-22T13:01:10.550Z,9.79
2022-12-22T13:06:59.698Z,9.21
2022-12-22T13:09:49.897Z,9.11
2022-12-22T13:12:39.778Z,9.31
2022-12-22T13:15:27.681Z,9.20
2022-12-22T13:17:54.571Z,9.05
2022-12-22T13:20:29.885Z,9.20
2022-12-22T13:23:03.450Z,9.49
2022-12-22T13:26:02.510Z,9.86
2022-12-22T13:28:29.999Z,9.90
2022-12-22T13:31:04.082Z,9.65
2022-12-22T13:33:37.172Z,9.76
2022-12-22T13:36:06.476Z,9.62
2022-12-22T13:38:35.889Z,9.17
2022-12-22T13:41:21.390Z,9.10
2022-12-22T13:43:56.721Z,8.93
2022-12-22T13:46:23.809Z,9.08
2022-12-22T13:48:53.262Z,9.03
2022-12-22T13:51:26.929Z,9.32
2022-12-22T13:54:11.179Z,9.11
2022-12-22T13:56:46.200Z,8.95
2022-12-22T13:59:21.811Z,8.96
2022-12-22T14:01:56.714Z,9.05
2022-12-22T14:04:23.513Z,9.04
2022-12-22T14:06:50.224Z,8.93
2022-12-22T14:09:18.380Z,8.74
2022-12-22T14:11:53.283Z,8.67
2022-12-22T14:14:24.740Z,8.72
2022-12-22T14:16:53.155Z,8.69
2022-12-22T14:19:21.830Z,8.45
2022-12-22T14:21:58.790Z,8.60
2022-12-22T14:24:32.063Z,8.58
2022-12-22T14:27:02.318Z,8.57
2022-12-22T14:29:31.148Z,8.52
2022-12-22T14:32:02.105Z,8.45
2022-12-22T14:34:31.247Z,8.43
2022-12-22T14:36:58.839Z,8.42
2022-12-22T14:39:27.923Z,8.49
2022-12-22T14:41:58.258Z,8.58
2022-12-22T14:44:29.275Z,8.45
2022-12-22T14:47:20.343Z,8.25
2022-12-22T14:49:53.987Z,8.27
2022-12-22T14:52:51.335Z,8.06
2022-12-22T14:55:33.653Z,8.04
2022-12-22T14:58:11.696Z,8.19
2022-12-22T15:00:44.119Z,8.27
2022-12-22T15:03:40.480Z,8.31
2022-12-22T15:06:27.039Z,8.18
2022-12-22T15:09:11.932Z,8.09
2022-12-22T15:11:51.623Z,7.92
2022-12-22T15:14:22.055Z,7.89
2022-12-22T15:16:49.764Z,7.73
2022-12-22T15:19:19.185Z,7.52
2022-12-22T15:21:45.861Z,7.67
2022-12-22T15:24:15.603Z,7.72
2022-12-22T15:26:43.467Z,7.78
2022-12-22T15:29:10.520Z,7.46
2022-12-22T15:31:38.509Z,7.35
2022-12-22T15:34:12.296Z,7.28
2022-12-22T15:36:38.975Z,7.31
2022-12-22T15:39:12.843Z,7.13
2022-12-22T15:41:39.656Z,7.16
2022-12-22T15:44:06.276Z,7.20
2022-12-22T15:46:33.495Z,7.04
2022-12-22T15:49:00.791Z,6.74
2022-12-22T15:51:29.810Z,6.82
2022-12-22T15:53:58.597Z,6.87
2022-12-22T15:56:27.237Z,6.78
2022-12-22T15:58:54.281Z,6.54
2022-12-22T16:01:20.990Z,6.70
2022-12-22T16:03:47.828Z,6.63
2022-12-22T16:06:17.200Z,6.76
2022-12-22T16:08:49.862Z,6.59
2022-12-22T16:11:18.172Z,6.60
2022-12-22T16:13:46.396Z,6.27
2022-12-22T16:16:13.210Z,6.11
2022-12-22T16:18:39.962Z,6.00
2022-12-22T16:21:25.401Z,6.03
2022-12-22T16:23:52.157Z,5.88
2022-12-22T16:26:20.723Z,5.75
2022-12-22T16:28:47.603Z,5.89
2022-12-22T16:31:25.209Z,5.91
2022-12-22T16:33:52.135Z,5.79
2022-12-22T16:36:18.970Z,5.73
2022-12-22T16:38:47.623Z,5.94
2022-12-22T16:41:23.933Z,5.83
2022-12-22T16:46:39.201Z,5.98
2022-12-22T16:49:08.980Z,6.18
2022-12-22T16:51:38.922Z,6.24
2022-12-22T16:54:05.671Z,6.34
2022-12-22T16:56:32.894Z,6.34
2022-12-22T16:59:00.983Z,6.23
2022-12-22T17:01:46.011Z,6.24
2022-12-22T17:04:23.250Z,6.10
2022-12-22T17:06:52.023Z,5.75
2022-12-22T17:09:29.615Z,5.46
2022-12-22T17:11:56.326Z,5.10
2022-12-22T17:14:30.523Z,5.15
2022-12-22T17:16:57.557Z,5.05
2022-12-22T17:19:24.202Z,4.93
2022-12-22T17:21:53.458Z,4.93
2022-12-22T17:24:27.877Z,5.10
2022-12-22T17:26:58.034Z,4.82
2022-12-22T17:29:25.730Z,4.85
2022-12-22T17:31:56.626Z,4.49
2022-12-22T17:34:24.289Z,4.47
2022-12-22T17:36:51.512Z,4.22
2022-12-22T17:39:22.666Z,4.16
2022-12-22T17:41:56.356Z,3.93
2022-12-22T17:44:26.115Z,3.88
2022-12-22T17:46:53.176Z,3.68
2022-12-22T17:49:22.469Z,3.58
2022-12-22T17:51:49.914Z,3.52
2022-12-22T17:54:24.997Z,3.56
2022-12-22T17:56:54.173Z,3.28
2022-12-22T17:59:20.889Z,3.12
2022-12-22T18:01:47.635Z,3.09
2022-12-22T18:04:14.441Z,3.16
2022-12-22T18:06:42.139Z,2.99
2022-12-22T18:09:18.816Z,2.94
2022-12-22T18:11:46.268Z,2.86
2022-12-22T18:14:14.589Z,2.94
2022-12-22T18:16:42.553Z,3.04
2022-12-22T18:19:09.394Z,3.04
2022-12-22T18:21:36.140Z,3.11
2022-12-22T18:24:03.822Z,3.04
2022-12-22T18:26:31.221Z,3.06
2022-12-22T18:28:58.419Z,3.14
2022-12-22T18:31:25.408Z,3.41
2022-12-22T18:33:52.720Z,3.42
2022-12-22T18:36:30.764Z,3.46
2022-12-22T18:38:58.934Z,3.42
2022-12-22T18:41:27.163Z,3.37
2022-12-22T18:43:54.024Z,3.22
2022-12-22T18:46:21.453Z,3.28
2022-12-22T18:48:48.733Z,3.49
2022-12-22T18:51:21.450Z,3.75
2022-12-22T18:53:50.036Z,3.69
2022-12-22T18:56:17.145Z,3.69
2022-12-22T18:58:43.858Z,3.62
2022-12-22T19:01:29.292Z,3.62
2022-12-22T19:03:58.944Z,3.57
2022-12-22T19:06:25.606Z,3.52
2022-12-22T19:08:52.309Z,3.61
2022-12-22T19:11:24.837Z,3.63
2022-12-22T19:13:52.614Z,3.67
2022-12-22T19:16:25.137Z,3.67
2022-12-22T19:18:51.904Z,3.47
2022-12-22T19:21:19.600Z,3.33
2022-12-22T19:23:46.746Z,3.30
2022-12-22T19:26:24.346Z,3.37
2022-12-22T19:28:57.459Z,3.53
2022-12-22T19:31:26.729Z,3.62
2022-12-22T19:33:55.031Z,3.61
2022-12-22T19:36:27.498Z,3.63
2022-12-22T19:39:03.514Z,3.67
2022-12-22T19:41:44.772Z,3.73
2022-12-22T19:44:27.415Z,3.74
2022-12-22T19:46:55.715Z,3.87
2022-12-22T19:49:25.066Z,3.83
2022-12-22T19:51:51.769Z,3.97
2022-12-22T19:54:19.836Z,3.97
2022-12-22T19:56:50.476Z,4.02
2022-12-22T19:59:29.801Z,3.59
2022-12-22T20:01:58.586Z,2.98
2022-12-22T20:04:25.686Z,2.84
2022-12-22T20:06:52.311Z,2.68
2022-12-22T20:09:19.027Z,2.83
2022-12-22T20:11:46.100Z,2.80
2022-12-22T20:14:20.506Z,2.61
2022-12-22T20:16:47.310Z,2.73
2022-12-22T20:19:15.060Z,2.49
2022-12-22T20:21:43.499Z,2.49
2022-12-22T20:24:19.625Z,2.60
2022-12-22T20:26:51.783Z,2.56
2022-12-22T20:29:20.369Z,2.69
2022-12-22T20:31:47.107Z,2.56
2022-12-22T20:34:13.865Z,2.44
2022-12-22T20:36:40.964Z,2.32
2022-12-22T20:39:12.592Z,2.22
2022-12-22T20:41:39.278Z,2.15
2022-12-22T20:44:06.079Z,2.14
2022-12-22T20:46:33.209Z,2.31
2022-12-22T20:49:02.373Z,2.53
2022-12-22T20:51:33.598Z,2.42
2022-12-22T20:54:01.280Z,2.34
2022-12-22T20:56:34.138Z,2.22
2022-12-22T20:59:07.524Z,2.27
2022-12-22T21:01:34.343Z,2.46
2022-12-22T21:04:01.085Z,2.60
2022-12-22T21:06:30.452Z,2.41
2022-12-22T21:08:58.852Z,2.23
2022-12-22T21:11:26.525Z,2.32
2022-12-22T21:13:54.229Z,2.08
2022-12-22T21:16:24.059Z,1.97
2022-12-22T21:18:51.087Z,1.88
2022-12-22T21:21:17.876Z,1.97
2022-12-22T21:23:44.514Z,1.83
2022-12-22T21:26:43.070Z,1.74
2022-12-22T21:29:18.552Z,1.53
2022-12-22T21:31:45.227Z,1.50
2022-12-22T21:34:11.901Z,1.77
2022-12-22T21:36:40.046Z,2.02
2022-12-22T21:39:16.537Z,2.14
2022-12-22T21:42:01.829Z,1.94
2022-12-22T21:44:30.089Z,1.76
2022-12-22T21:46:57.734Z,1.79
2022-12-22T21:49:26.785Z,1.88
2022-12-22T21:51:54.478Z,1.55
2022-12-22T21:54:23.930Z,1.44
2022-12-22T21:56:51.506Z,1.68
2022-12-22T21:59:18.816Z,1.50
2022-12-22T22:01:46.753Z,1.52
2022-12-22T22:04:14.090Z,1.50
2022-12-22T22:06:40.836Z,1.72
2022-12-22T22:09:07.687Z,1.67
2022-12-22T22:11:54.966Z,1.40
2022-12-22T22:14:22.196Z,1.69
2022-12-22T22:16:49.153Z,1.88
2022-12-22T22:19:17.872Z,1.70
2022-12-22T22:21:47.744Z,1.86
2022-12-22T22:24:14.543Z,1.83
2022-12-22T22:26:41.346Z,1.77
2022-12-22T22:29:07.971Z,1.51
2022-12-22T22:31:34.697Z,1.74
2022-12-22T22:34:01.464Z,1.55
2022-12-22T22:36:28.083Z,1.59
2022-12-22T22:38:54.753Z,1.61
2022-12-22T22:41:21.461Z,1.48
2022-12-22T22:43:48.182Z,1.66
2022-12-22T22:46:14.842Z,1.50
2022-12-22T22:48:41.537Z,1.79
2022-12-22T22:51:10.614Z,1.54
2022-12-22T22:53:37.371Z,1.27
2022-12-22T22:56:04.371Z,1.15
2022-12-22T22:58:31.485Z,1.22
2022-12-22T23:01:06.210Z,0.96
2022-12-22T23:03:33.124Z,0.63
2022-12-22T23:06:08.265Z,1.14
2022-12-22T23:08:35.593Z,0.80
2022-12-22T23:11:03.454Z,0.73
2022-12-22T23:13:30.897Z,0.97
2022-12-22T23:15:59.997Z,1.10
2022-12-22T23:18:27.778Z,0.93
2022-12-22T23:20:57.358Z,0.77
2022-12-22T23:23:23.996Z,0.65
2022-12-22T23:25:51.128Z,0.61
2022-12-22T23:28:18.505Z,0.57
2022-12-22T23:30:48.212Z,0.59
2022-12-22T23:33:15.286Z,0.46
2022-12-22T23:35:42.816Z,0.54
2022-12-22T23:38:10.026Z,0.52
2022-12-22T23:40:54.732Z,0.46
2022-12-22T23:43:21.861Z,0.26
2022-12-22T23:45:48.724Z,0.38
2022-12-22T23:48:15.348Z,0.37
2022-12-22T23:50:42.027Z,0.47
2022-12-22T23:53:08.705Z,0.47
2022-12-22T23:55:35.418Z,0.23
2022-12-22T23:58:02.114Z,0.09
